Adin, California
Current Conditions -  °F | °C
As of 2:55 PM on Thursday 23 Oct 2014 (Local Time) from KAAT Reporting Station
Light Rain Light Rain  
Wind Chill: 52°   Ceiling: 3500
Heat Index: 52°   Visibility: 10mi
Dew Point: 47°   Wind: 8mph
Humidity: 83%   Direction: 250°WSW
Pressure: 30.06"   Gusts: NA
Location:  41.19°N, 120.95°W
Report Text: KAAT 232155Z AUTO 25007KT 10SM -RA FEW024 BKN035 OVC050 11/08 A3006 RMK AO2 RAB46 SLP166 P0000 T01110083
Loading
Personal Weather Stations






























Interactive Weather Map
Tropical Storm Tracking
New forecast layout! Learn more

10-Day Weather Forecast

Advertisements
Track Severe Weather on mobile